createdAt,value
2022-10-28T00:01:28.231Z,18.00
2022-10-28T00:03:58.740Z,20.98
2022-10-28T00:06:33.415Z,23.33
2022-10-28T00:09:01.418Z,18.02
2022-10-28T00:11:33.599Z,19.47
2022-10-28T00:14:07.066Z,16.75
2022-10-28T00:16:37.719Z,19.63
2022-10-28T00:19:08.375Z,18.25
2022-10-28T00:21:39.183Z,20.75
2022-10-28T00:24:08.785Z,19.75
2022-10-28T00:26:39.531Z,16.48
2022-10-28T00:29:16.122Z,21.77
2022-10-28T00:31:44.572Z,12.15
2022-10-28T00:34:18.592Z,17.70
2022-10-28T00:36:48.101Z,20.33
2022-10-28T00:39:22.876Z,17.83
2022-10-28T00:41:55.480Z,15.50
2022-10-28T00:44:57.085Z,16.27
2022-10-28T00:47:33.919Z,18.98
2022-10-28T00:50:14.582Z,18.63
2022-10-28T00:52:44.525Z,15.25
2022-10-28T00:55:16.136Z,18.83
2022-10-28T00:57:45.154Z,15.10
2022-10-28T01:00:14.227Z,14.63
2022-10-28T01:05:22.238Z,20.83
2022-10-28T01:07:53.410Z,17.33
2022-10-28T01:10:28.882Z,18.65
2022-10-28T01:13:17.119Z,16.45
2022-10-28T01:16:11.361Z,19.35
2022-10-28T01:19:45.763Z,16.20
2022-10-28T01:22:55.674Z,12.70
2022-10-28T01:26:00.704Z,12.35
2022-10-28T01:29:12.557Z,17.67
2022-10-28T01:32:07.783Z,19.95
2022-10-28T01:35:09.499Z,20.20
2022-10-28T01:38:14.767Z,22.23
2022-10-28T01:41:28.154Z,19.42
2022-10-28T01:44:26.655Z,19.73
2022-10-28T01:47:11.758Z,22.90
2022-10-28T01:50:26.775Z,16.88
2022-10-28T01:53:00.379Z,19.63
2022-10-28T01:55:42.045Z,17.02
2022-10-28T01:58:15.233Z,20.13
2022-10-28T02:00:45.429Z,20.52
2022-10-28T02:03:13.058Z,27.85
2022-10-28T02:05:46.272Z,16.63
2022-10-28T02:08:46.588Z,19.48
2022-10-28T02:11:41.915Z,25.17
2022-10-28T02:14:17.465Z,23.58
2022-10-28T02:17:08.854Z,31.83
2022-10-28T02:20:00.196Z,27.45
2022-10-28T02:22:46.227Z,22.45
2022-10-28T02:25:46.213Z,26.20
2022-10-28T02:28:29.570Z,24.05
2022-10-28T02:31:22.887Z,31.92
2022-10-28T02:33:57.353Z,19.30
2022-10-28T02:36:27.464Z,19.13
2022-10-28T02:38:58.714Z,22.25
2022-10-28T02:41:44.552Z,22.20
2022-10-28T02:44:18.777Z,18.15
2022-10-28T02:46:50.406Z,20.00
2022-10-28T02:49:18.420Z,22.55
2022-10-28T02:52:03.505Z,25.05
2022-10-28T02:54:45.902Z,19.08
2022-10-28T02:57:24.898Z,21.70
2022-10-28T03:02:26.868Z,16.05
2022-10-28T03:04:54.755Z,26.48
2022-10-28T03:07:22.433Z,22.95
2022-10-28T03:09:50.323Z,24.50
2022-10-28T03:12:18.083Z,23.70
2022-10-28T03:14:45.889Z,19.13
2022-10-28T03:17:13.453Z,20.95
2022-10-28T03:19:41.213Z,22.52
2022-10-28T03:22:08.849Z,23.05
2022-10-28T03:24:36.559Z,18.83
2022-10-28T03:27:04.335Z,19.08
2022-10-28T03:29:32.090Z,23.83
2022-10-28T03:31:59.604Z,23.23
2022-10-28T03:34:27.343Z,37.03
2022-10-28T03:36:54.976Z,32.55
2022-10-28T03:39:22.766Z,25.10
2022-10-28T03:41:50.244Z,21.45
2022-10-28T03:44:18.008Z,22.25
2022-10-28T03:46:45.546Z,23.02
2022-10-28T03:49:13.242Z,21.73
2022-10-28T03:51:40.713Z,23.92
2022-10-28T03:54:08.516Z,21.00
2022-10-28T03:56:35.991Z,21.40
2022-10-28T03:59:03.903Z,28.85
2022-10-28T04:01:31.515Z,23.58
2022-10-28T04:03:59.375Z,26.83
2022-10-28T04:06:26.852Z,25.42
2022-10-28T04:08:54.667Z,23.40
2022-10-28T04:11:22.164Z,27.75
2022-10-28T04:13:50.125Z,28.63
2022-10-28T04:16:17.624Z,30.30
2022-10-28T04:18:45.438Z,23.65
2022-10-28T04:21:13.096Z,33.85
2022-10-28T04:23:40.851Z,26.88
2022-10-28T04:26:08.340Z,31.30
2022-10-28T04:28:36.113Z,34.50
2022-10-28T04:31:04.058Z,27.67
2022-10-28T04:33:31.793Z,27.30
2022-10-28T04:35:59.293Z,28.20
2022-10-28T04:38:27.020Z,26.83
2022-10-28T04:40:54.681Z,26.45
2022-10-28T04:43:22.455Z,28.08
2022-10-28T04:45:50.019Z,25.70
2022-10-28T04:48:17.795Z,28.83
2022-10-28T04:50:45.733Z,28.38
2022-10-28T04:53:14.107Z,26.85
2022-10-28T04:55:41.570Z,29.40
2022-10-28T04:58:10.202Z,31.63
2022-10-28T05:00:37.750Z,30.95
2022-10-28T05:03:05.545Z,24.08
2022-10-28T05:05:33.357Z,24.25
2022-10-28T05:08:01.909Z,23.40
2022-10-28T05:10:31.425Z,33.80
2022-10-28T05:12:59.223Z,30.83
2022-10-28T05:15:26.916Z,33.22
2022-10-28T05:17:55.127Z,29.38
2022-10-28T05:20:23.931Z,33.13
2022-10-28T05:22:55.333Z,32.40
2022-10-28T05:25:23.881Z,33.10
2022-10-28T05:27:52.349Z,27.20
2022-10-28T05:30:20.378Z,28.10
2022-10-28T05:32:50.360Z,26.58
2022-10-28T05:35:20.500Z,29.58
2022-10-28T05:37:48.311Z,35.80
2022-10-28T05:40:15.877Z,52.40
2022-10-28T05:42:44.455Z,33.25
2022-10-28T05:45:12.938Z,38.30
2022-10-28T05:47:45.890Z,37.50
2022-10-28T05:50:15.577Z,38.08
2022-10-28T05:52:51.903Z,40.33
2022-10-28T05:55:21.481Z,47.45
2022-10-28T05:57:51.706Z,41.83
2022-10-28T06:00:23.306Z,48.08
2022-10-28T06:02:51.650Z,50.05
2022-10-28T06:05:20.214Z,46.22
2022-10-28T06:07:48.145Z,46.13
2022-10-28T06:10:15.642Z,50.10
2022-10-28T06:12:42.080Z,44.75
2022-10-28T06:15:09.800Z,45.25
2022-10-28T06:17:37.654Z,45.25
2022-10-28T06:20:05.951Z,42.22
2022-10-28T06:22:33.809Z,60.55
2022-10-28T06:25:01.346Z,67.50
2022-10-28T06:27:31.250Z,49.17
2022-10-28T06:29:58.690Z,44.28
2022-10-28T06:32:26.526Z,50.65
2022-10-28T06:34:54.046Z,54.25
2022-10-28T06:37:21.820Z,45.58
2022-10-28T06:39:51.487Z,52.22
2022-10-28T06:42:19.700Z,50.45
2022-10-28T06:44:48.099Z,47.15
2022-10-28T06:47:17.356Z,50.35
2022-10-28T06:49:44.944Z,58.72
2022-10-28T06:52:12.716Z,42.72
2022-10-28T06:54:40.525Z,46.92
2022-10-28T06:57:08.268Z,48.20
2022-10-28T06:59:35.951Z,48.35
2022-10-28T07:02:04.819Z,60.42
2022-10-28T07:04:34.428Z,55.38
2022-10-28T07:07:01.988Z,54.38
2022-10-28T07:09:29.987Z,43.42
2022-10-28T07:12:00.873Z,68.30
2022-10-28T07:14:34.825Z,65.25
2022-10-28T07:17:02.662Z,64.28
2022-10-28T07:19:30.482Z,68.50
2022-10-28T07:21:57.994Z,59.63
2022-10-28T07:26:59.087Z,63.30
2022-10-28T07:29:26.887Z,58.83
2022-10-28T07:31:55.800Z,75.28
2022-10-28T07:34:27.089Z,68.25
2022-10-28T07:36:56.386Z,63.58
2022-10-28T07:39:24.512Z,60.35
2022-10-28T07:41:52.032Z,60.20
2022-10-28T07:44:19.753Z,67.47
2022-10-28T07:46:47.253Z,64.53
2022-10-28T07:49:15.046Z,65.93
2022-10-28T07:51:42.554Z,68.95
2022-10-28T07:54:10.509Z,64.07
2022-10-28T07:56:38.053Z,66.57
2022-10-28T07:59:05.732Z,80.82
2022-10-28T08:01:33.349Z,76.15
2022-10-28T08:04:01.076Z,73.47
2022-10-28T08:06:28.544Z,78.82
2022-10-28T08:08:57.225Z,86.90
2022-10-28T08:11:25.426Z,75.25
2022-10-28T08:13:55.357Z,76.93
2022-10-28T08:18:50.652Z,68.90
2022-10-28T08:21:18.194Z,68.93
2022-10-28T08:23:46.883Z,55.92
2022-10-28T08:26:16.494Z,64.50
2022-10-28T08:28:44.302Z,57.08
2022-10-28T08:31:14.883Z,48.67
2022-10-28T08:33:45.499Z,39.80
2022-10-28T08:36:16.417Z,34.53
2022-10-28T08:38:46.247Z,39.13
2022-10-28T08:44:32.846Z,39.20
2022-10-28T08:47:22.334Z,45.97
2022-10-28T08:50:00.417Z,41.45
2022-10-28T08:53:10.296Z,35.45
2022-10-28T08:55:44.575Z,44.67
2022-10-28T08:58:19.249Z,49.17
2022-10-28T09:00:57.251Z,44.33
2022-10-28T09:03:42.098Z,44.90
2022-10-28T09:06:11.502Z,56.33
2022-10-28T09:08:46.894Z,56.67
2022-10-28T09:11:45.388Z,58.25
2022-10-28T09:14:45.605Z,63.13
2022-10-28T09:17:25.431Z,62.38
2022-10-28T09:20:07.432Z,66.25
2022-10-28T09:22:49.188Z,70.53
2022-10-28T09:25:41.931Z,63.55
2022-10-28T09:28:30.721Z,68.80
2022-10-28T09:31:42.692Z,62.93
2022-10-28T09:34:43.691Z,55.67
2022-10-28T09:37:28.261Z,59.47
2022-10-28T09:40:01.453Z,48.30
2022-10-28T09:42:42.538Z,49.13
2022-10-28T09:45:23.343Z,40.70
2022-10-28T09:48:27.259Z,37.78
2022-10-28T09:50:57.509Z,44.75
2022-10-28T09:53:45.119Z,44.30
2022-10-28T09:56:12.885Z,48.50
2022-10-28T09:58:46.694Z,47.42
2022-10-28T10:01:17.963Z,47.15
2022-10-28T10:03:49.268Z,54.08
2022-10-28T10:06:37.364Z,47.03
2022-10-28T10:09:05.308Z,49.83
2022-10-28T10:11:46.861Z,42.15
2022-10-28T10:14:34.206Z,41.47
2022-10-28T10:17:23.058Z,44.33
2022-10-28T10:20:11.704Z,50.97
2022-10-28T10:22:45.276Z,48.30
2022-10-28T10:25:21.532Z,49.22
2022-10-28T10:27:59.405Z,48.80
2022-10-28T10:30:39.345Z,49.25
2022-10-28T10:33:19.694Z,50.13
2022-10-28T10:36:00.083Z,56.15
2022-10-28T10:38:29.397Z,56.40
2022-10-28T10:40:57.197Z,57.92
2022-10-28T10:43:35.882Z,62.55
2022-10-28T10:46:16.639Z,60.63
2022-10-28T10:48:45.190Z,54.90
2022-10-28T10:51:26.061Z,54.38
2022-10-28T10:54:01.945Z,62.20
2022-10-28T10:56:33.162Z,55.83
2022-10-28T10:59:05.992Z,56.88
2022-10-28T11:01:40.130Z,56.80
2022-10-28T11:04:15.751Z,66.55
2022-10-28T11:06:48.800Z,61.17
2022-10-28T11:09:30.479Z,57.95
2022-10-28T11:11:58.290Z,61.22
2022-10-28T11:14:33.017Z,55.13
2022-10-28T11:17:03.227Z,54.35
2022-10-28T11:19:32.248Z,61.30
2022-10-28T11:22:10.297Z,58.13
2022-10-28T11:25:19.424Z,55.63
2022-10-28T11:30:32.448Z,54.95
2022-10-28T11:33:29.604Z,54.80
2022-10-28T11:36:55.347Z,57.13
2022-10-28T11:39:50.700Z,47.55
2022-10-28T11:42:45.607Z,46.35
2022-10-28T11:45:29.848Z,37.78
2022-10-28T11:48:12.659Z,35.85
2022-10-28T11:51:07.854Z,35.97
2022-10-28T11:54:31.637Z,30.67
2022-10-28T11:57:24.049Z,38.25
2022-10-28T12:00:25.266Z,44.78
2022-10-28T12:03:29.952Z,41.65
2022-10-28T12:06:15.185Z,34.33
2022-10-28T12:12:24.474Z,38.95
2022-10-28T12:15:10.958Z,35.08
2022-10-28T12:18:05.996Z,33.88
2022-10-28T12:20:45.428Z,35.35
2022-10-28T12:23:21.006Z,34.10
2022-10-28T12:25:55.197Z,33.30
2022-10-28T12:28:33.667Z,31.17
2022-10-28T12:31:02.602Z,30.47
2022-10-28T12:33:39.485Z,34.08
2022-10-28T12:36:12.644Z,29.20
2022-10-28T12:39:02.049Z,25.52
2022-10-28T12:42:11.851Z,26.30
2022-10-28T12:44:40.819Z,33.05
2022-10-28T12:47:39.120Z,28.88
2022-10-28T12:50:32.395Z,34.03
2022-10-28T12:53:09.735Z,27.77
2022-10-28T12:55:48.713Z,29.08
2022-10-28T13:01:16.812Z,28.25
2022-10-28T13:03:44.718Z,28.25
2022-10-28T13:06:33.469Z,29.23
2022-10-28T13:09:33.354Z,24.30
2022-10-28T13:12:34.711Z,21.92
2022-10-28T13:15:35.338Z,23.85
2022-10-28T13:18:26.766Z,23.77
2022-10-28T13:21:33.453Z,22.45
2022-10-28T13:24:29.481Z,23.42
2022-10-28T13:26:57.542Z,28.67
2022-10-28T13:29:29.324Z,19.55
2022-10-28T13:31:57.163Z,24.45
2022-10-28T13:34:37.692Z,22.53
2022-10-28T13:37:16.644Z,26.98
2022-10-28T13:39:47.084Z,17.85
2022-10-28T13:42:23.448Z,19.83
2022-10-28T13:45:00.941Z,25.50
2022-10-28T13:47:33.676Z,17.95
2022-10-28T13:50:08.076Z,19.80
2022-10-28T13:52:38.645Z,21.23
2022-10-28T13:55:26.935Z,27.55
2022-10-28T13:58:04.554Z,15.20
2022-10-28T14:00:32.249Z,15.93
2022-10-28T14:03:17.422Z,14.88
2022-10-28T14:05:45.150Z,14.80
2022-10-28T14:08:24.832Z,19.35
2022-10-28T14:11:32.573Z,16.67
2022-10-28T14:14:03.836Z,14.90
2022-10-28T14:16:37.527Z,14.60
2022-10-28T14:19:11.691Z,11.02
2022-10-28T14:21:56.442Z,15.48
2022-10-28T14:24:42.472Z,15.13
2022-10-28T14:27:13.233Z,15.75
2022-10-28T14:30:25.106Z,15.77
2022-10-28T14:33:18.830Z,21.25
2022-10-28T14:35:48.065Z,20.92
2022-10-28T14:38:45.394Z,20.90
2022-10-28T14:41:50.774Z,21.08
2022-10-28T14:44:58.599Z,25.02
2022-10-28T14:48:08.746Z,25.05
2022-10-28T14:50:49.735Z,32.92
2022-10-28T14:53:32.116Z,28.02
2022-10-28T14:56:39.870Z,27.48
2022-10-28T14:59:32.148Z,31.05
2022-10-28T15:02:14.143Z,35.42
2022-10-28T15:04:44.855Z,31.98
2022-10-28T15:07:20.664Z,33.95
2022-10-28T15:09:53.558Z,41.13
2022-10-28T15:12:26.292Z,31.92
2022-10-28T15:14:57.212Z,34.83
2022-10-28T15:17:39.423Z,43.95
2022-10-28T15:20:24.942Z,44.28
2022-10-28T15:22:54.900Z,42.90
2022-10-28T15:25:23.539Z,42.25
2022-10-28T15:27:52.579Z,48.70
2022-10-28T15:30:26.802Z,39.08
2022-10-28T15:33:15.412Z,46.92
2022-10-28T15:35:43.086Z,47.13
2022-10-28T15:38:38.343Z,45.97
2022-10-28T15:41:25.730Z,47.28
2022-10-28T15:44:39.681Z,57.47
2022-10-28T15:47:34.907Z,51.53
2022-10-28T15:50:21.140Z,58.17
2022-10-28T15:52:57.144Z,54.25
2022-10-28T15:55:47.873Z,52.83
2022-10-28T15:58:20.148Z,48.13
2022-10-28T16:00:55.679Z,55.47
2022-10-28T16:03:39.783Z,63.30
2022-10-28T16:06:33.755Z,63.92
2022-10-28T16:09:09.980Z,56.95
2022-10-28T16:11:44.620Z,63.85
2022-10-28T16:14:40.315Z,73.40
2022-10-28T16:17:27.014Z,60.85
2022-10-28T16:20:01.462Z,63.92
2022-10-28T16:22:31.356Z,61.10
2022-10-28T16:27:31.169Z,73.80
2022-10-28T16:29:59.051Z,72.97
2022-10-28T16:32:40.018Z,66.53
2022-10-28T16:35:33.991Z,73.57
2022-10-28T16:38:01.884Z,70.50
2022-10-28T16:43:20.191Z,62.15
2022-10-28T16:45:49.645Z,73.47
2022-10-28T16:48:19.489Z,65.60
2022-10-28T16:51:03.018Z,58.95
2022-10-28T16:53:30.990Z,59.85
2022-10-28T16:56:01.586Z,62.30
2022-10-28T16:58:30.255Z,56.20
2022-10-28T17:00:59.641Z,50.05
2022-10-28T17:03:30.181Z,50.95
2022-10-28T17:05:57.714Z,50.38
2022-10-28T17:08:42.519Z,52.97
2022-10-28T17:11:16.672Z,55.42
2022-10-28T17:13:44.693Z,46.45
2022-10-28T17:16:13.220Z,43.95
2022-10-28T17:18:42.551Z,54.22
2022-10-28T17:21:10.219Z,52.03
2022-10-28T17:23:40.306Z,47.15
2022-10-28T17:26:07.810Z,45.97
2022-10-28T17:28:38.848Z,51.58
2022-10-28T17:31:08.912Z,43.75
2022-10-28T17:33:37.649Z,39.85
2022-10-28T17:36:08.613Z,41.40
2022-10-28T17:38:36.875Z,42.55
2022-10-28T17:41:04.438Z,35.92
2022-10-28T17:43:32.300Z,37.15
2022-10-28T17:46:07.648Z,33.75
2022-10-28T17:48:43.357Z,34.00
2022-10-28T17:51:11.103Z,42.55
2022-10-28T17:53:38.965Z,42.63
2022-10-28T17:56:07.741Z,38.97
2022-10-28T18:01:08.200Z,34.83
2022-10-28T18:03:38.964Z,31.58
2022-10-28T18:06:13.045Z,38.10
2022-10-28T18:08:43.662Z,32.83
2022-10-28T18:11:14.221Z,33.78
2022-10-28T18:13:45.147Z,32.72
2022-10-28T18:16:17.018Z,43.30
2022-10-28T18:18:45.169Z,32.97
2022-10-28T18:21:14.293Z,39.63
2022-10-28T18:23:42.951Z,33.63
2022-10-28T18:26:15.826Z,35.15
2022-10-28T18:28:45.941Z,40.33
2022-10-28T18:31:17.152Z,32.35
2022-10-28T18:33:47.526Z,28.80
2022-10-28T18:36:18.518Z,33.97
2022-10-28T18:38:46.971Z,32.97
2022-10-28T18:41:23.793Z,30.25
2022-10-28T18:43:56.839Z,36.63
2022-10-28T18:46:25.663Z,34.97
2022-10-28T18:48:53.805Z,36.70
2022-10-28T18:51:21.377Z,35.00
2022-10-28T18:53:50.284Z,34.08
2022-10-28T18:56:24.537Z,33.25
2022-10-28T18:58:52.615Z,28.50
2022-10-28T19:01:26.364Z,30.55
2022-10-28T19:04:04.055Z,37.95
2022-10-28T19:06:33.690Z,29.60
2022-10-28T19:09:05.147Z,24.83
2022-10-28T19:11:34.556Z,30.13
2022-10-28T19:14:06.098Z,34.97
2022-10-28T19:16:36.458Z,30.45
2022-10-28T19:19:05.692Z,35.10
2022-10-28T19:21:34.224Z,35.10
2022-10-28T19:24:01.950Z,36.50
2022-10-28T19:26:32.014Z,30.10
2022-10-28T19:29:00.143Z,32.42
2022-10-28T19:31:28.471Z,28.70
2022-10-28T19:33:56.093Z,26.70
2022-10-28T19:36:27.267Z,32.53
2022-10-28T19:38:56.641Z,30.90
2022-10-28T19:41:30.263Z,37.33
2022-10-28T19:44:01.264Z,35.17
2022-10-28T19:46:33.989Z,35.72
2022-10-28T19:49:05.742Z,33.75
2022-10-28T19:51:40.289Z,33.50
2022-10-28T19:54:14.973Z,34.63
2022-10-28T19:56:44.561Z,29.95
2022-10-28T20:01:41.116Z,29.63
2022-10-28T20:04:10.221Z,40.17
2022-10-28T20:06:40.800Z,37.72
2022-10-28T20:09:08.698Z,37.90
2022-10-28T20:11:38.960Z,36.00
2022-10-28T20:14:11.662Z,35.25
2022-10-28T20:16:43.827Z,39.17
2022-10-28T20:19:12.009Z,39.15
2022-10-28T20:21:40.188Z,38.70
2022-10-28T20:24:08.838Z,36.30
2022-10-28T20:26:38.908Z,49.17
2022-10-28T20:29:15.622Z,42.75
2022-10-28T20:31:43.604Z,46.95
2022-10-28T20:34:11.125Z,42.67
2022-10-28T20:36:46.241Z,41.10
2022-10-28T20:39:27.258Z,38.70
2022-10-28T20:42:10.590Z,41.25
2022-10-28T20:44:49.639Z,38.00
2022-10-28T20:47:25.365Z,44.40
2022-10-28T20:50:02.821Z,40.17
2022-10-28T20:52:35.878Z,39.25
2022-10-28T20:55:06.195Z,41.75
2022-10-28T21:00:04.740Z,38.70
2022-10-28T21:02:37.717Z,40.72
2022-10-28T21:05:07.240Z,38.17
2022-10-28T21:07:36.240Z,58.88
2022-10-28T21:10:05.363Z,52.87
2022-10-28T21:15:02.341Z,52.17
2022-10-28T21:17:31.086Z,48.42
2022-10-28T21:22:34.772Z,59.08
2022-10-28T21:25:03.444Z,61.28
2022-10-28T21:27:32.540Z,45.60
2022-10-28T21:30:01.577Z,46.28
2022-10-28T21:32:31.920Z,49.92
2022-10-28T21:35:01.076Z,47.20
2022-10-28T21:40:00.911Z,49.60
2022-10-28T21:42:29.679Z,42.40
2022-10-28T21:44:57.844Z,40.50
2022-10-28T21:47:27.544Z,47.57
2022-10-28T21:49:55.240Z,51.20
2022-10-28T21:52:22.915Z,46.30
2022-10-28T21:54:50.346Z,51.15
2022-10-28T21:57:18.767Z,51.40
2022-10-28T21:59:49.544Z,44.45
2022-10-28T22:02:17.246Z,52.42
2022-10-28T22:04:45.054Z,49.65
2022-10-28T22:07:17.479Z,54.60
2022-10-28T22:09:54.180Z,43.30
2022-10-28T22:12:26.824Z,49.97
2022-10-28T22:14:54.685Z,45.25
2022-10-28T22:17:22.377Z,49.20
2022-10-28T22:19:52.373Z,53.60
2022-10-28T22:22:22.596Z,46.92
2022-10-28T22:24:58.371Z,47.25
2022-10-28T22:27:32.697Z,55.20
2022-10-28T22:30:09.738Z,48.85
2022-10-28T22:38:34.475Z,45.72
2022-10-28T22:41:23.914Z,43.55
2022-10-28T22:44:05.609Z,43.03
2022-10-28T22:46:55.298Z,47.58
2022-10-28T22:49:26.343Z,49.15
2022-10-28T22:51:54.422Z,42.67
2022-10-28T22:54:21.896Z,53.97
2022-10-28T22:56:49.586Z,49.85
2022-10-28T22:59:17.120Z,45.70
2022-10-28T23:01:44.618Z,50.35
2022-10-28T23:04:12.596Z,43.38
2022-10-28T23:06:40.237Z,47.35
2022-10-28T23:09:07.707Z,49.58
2022-10-28T23:11:35.460Z,47.28
2022-10-28T23:14:02.891Z,51.78
2022-10-28T23:16:30.646Z,52.70
2022-10-28T23:19:01.138Z,48.00
2022-10-28T23:21:28.987Z,50.78
2022-10-28T23:23:59.801Z,47.33
2022-10-28T23:26:29.569Z,46.63
2022-10-28T23:28:59.877Z,47.72
2022-10-28T23:31:28.330Z,48.17
2022-10-28T23:33:55.901Z,47.05
2022-10-28T23:36:23.624Z,53.58
2022-10-28T23:38:52.501Z,46.13
2022-10-28T23:41:21.071Z,51.97
2022-10-28T23:43:49.455Z,47.80
2022-10-28T23:46:18.126Z,52.50
2022-10-28T23:48:45.703Z,48.97
2022-10-28T23:51:14.114Z,54.97
2022-10-28T23:53:41.915Z,52.20
2022-10-28T23:56:09.422Z,54.17
2022-10-28T23:58:36.914Z,61.85
